Date,TemperatureHighF,TemperatureAvgF,TemperatureLowF,DewpointHighF,DewpointAvgF,DewpointLowF,HumidityHigh,HumidityAvg,HumidityLow,PressureMaxIn,PressureMinIn,WindSpeedMaxMPH,WindSpeedAvgMPH,GustSpeedMaxMPH,PrecipitationSumIn
2013-8-1,84,68,54,75,63,53,99,84,56,29.98,29.77,11,2,15,0.08
2013-8-2,72,65,57,66,62,56,100,93,69,29.96,29.78,5,0,9,0.22
2013-8-3,76,68,50,62,57,50,100,70,48,30.11,29.96,5,2,7,0.01
2013-8-4,82,68,52,63,58,51,99,74,48,30.13,29.89,6,2,8,0.00
2013-8-5,84,72,64,75,67,60,97,84,63,29.89,29.70,5,2,9,0.01
2013-8-6,86,72,59,72,66,58,100,82,55,29.76,29.64,8,2,11,0.01
2013-8-7,78,67,59,66,61,57,99,82,59,29.93,29.70,5,2,9,0.00
2013-8-8,77,66,59,66,60,55,96,81,65,29.96,29.87,6,2,10,0.01
2013-8-9,78,68,58,65,60,55,99,78,53,30.04,29.90,6,2,11,0.00
2013-8-10,81,66,51,67,60,50,100,83,54,30.09,29.96,5,1,9,0.06
2013-8-11,80,67,61,72,65,61,100,95,76,30.00,29.90,9,2,11,0.65
2013-8-12,78,66,54,66,60,54,100,83,52,29.99,29.92,6,2,11,0.00
2013-8-13,75,63,50,63,56,50,100,79,48,30.09,29.98,6,2,12,0.01
2013-8-14,77,62,47,60,54,46,100,78,48,30.12,30.02,4,1,12,0.00
2013-8-15,72,62,50,62,57,49,100,87,65,30.06,29.98,5,1,9,0.00
2013-8-16,77,63,50,62,57,50,100,83,54,30.12,30.05,4,1,8,0.01
2013-8-17,79,67,51,62,57,50,98,73,49,30.11,30.00,5,2,14,0.00
2013-8-18,80,68,54,62,58,51,95,71,46,30.05,29.93,7,2,14,0.00
2013-8-19,85,74,64,71,66,60,91,78,61,29.94,29.78,7,4,15,0.00
2013-8-20,88,77,68,76,71,66,94,82,66,29.81,29.73,7,4,12,0.00
2013-8-21,86,76,71,76,72,68,99,87,68,29.85,29.74,8,3,12,0.03
2013-8-22,82,74,66,73,70,66,100,88,69,29.99,29.83,16,3,21,0.66
2013-8-23,84,75,66,76,71,65,99,87,73,29.99,29.87,5,2,9,0.00
2013-8-24,87,76,71,77,72,69,96,87,68,29.96,29.84,9,4,14,0.04
2013-8-25,91,81,73,78,74,70,92,80,63,29.93,29.84,10,6,18,0.00
2013-8-26,92,82,74,79,74,70,91,78,62,29.89,29.73,10,5,16,0.00
2013-8-27,91,81,75,80,73,68,98,77,65,29.76,29.69,10,5,15,0.00
2013-8-28,95,82,71,82,76,71,100,85,62,29.85,29.76,3,1,13,0.00
2013-8-29,92,80,67,76,71,66,98,75,47,29.87,29.74,9,2,12,0.00
2013-8-30,87,77,65,77,72,63,100,84,67,29.76,29.72,7,2,12,0.00
2013-8-31,90,74,59,74,67,59,100,83,52,29.77,29.64,4,1,11,0.00